Time;durP1;ratioP1;P1;durP2;ratioP2;P2;SDS_P1;SDS_P2;PMS_P1;PMS_P2;Temp;Humidity;BMP_temperature;BMP_pressure;BME280_temperature;BME280_humidity;BME280_pressure;Samples;Min_cycle;Max_cycle;Signal;HPM_P1;HPM_P2
2023/01/19 00:02:00;;;;;;;19.48;12.75;;;;;;;6.28;56.73;99999.94;6181221;23;20021;-67
2023/01/19 00:04:26;;;;;;;17.00;12.65;;;;;;;6.30;56.52;100000.69;6181597;23;20009;-67
2023/01/19 00:06:53;;;;;;;14.40;11.90;;;;;;;6.30;56.58;100000.69;6181496;23;20051;-67
2023/01/19 00:09:21;;;;;;;19.05;12.85;;;;;;;6.32;56.79;99996.13;6155195;23;20109;-67
2023/01/19 00:11:47;;;;;;;17.73;12.82;;;;;;;6.35;56.70;99995.06;6155037;22;20493;-66
2023/01/19 00:14:14;;;;;;;16.85;13.32;;;;;;;6.37;56.77;99998.47;6181451;23;20020;-67
2023/01/19 00:16:40;;;;;;;18.20;12.63;;;;;;;6.39;56.81;99996.56;6155171;23;20013;-66
2023/01/19 00:19:07;;;;;;;17.02;13.60;;;;;;;6.41;56.87;99997.31;6181737;23;20348;-66
2023/01/19 00:21:34;;;;;;;17.30;13.55;;;;;;;6.43;56.82;99999.88;6155338;23;20100;-67
2023/01/19 00:24:00;;;;;;;17.58;12.68;;;;;;;6.42;56.80;99996.34;6181345;23;20040;-66
2023/01/19 00:26:27;;;;;;;17.80;13.73;;;;;;;6.43;56.99;99987.38;6181368;23;20086;-67
2023/01/19 00:28:53;;;;;;;15.95;12.45;;;;;;;6.43;56.86;99990.06;6181207;23;20092;-67
2023/01/19 00:31:20;;;;;;;17.98;13.27;;;;;;;6.44;56.92;99990.91;6181559;23;20013;-67
2023/01/19 00:33:48;;;;;;;16.40;12.68;;;;;;;6.44;56.87;99991.75;6154927;23;20329;-67
2023/01/19 00:36:15;;;;;;;19.10;12.98;;;;;;;6.44;56.85;100001.56;6181427;23;20470;-67
2023/01/19 00:38:42;;;;;;;18.58;13.20;;;;;;;6.44;56.98;100006.91;6181195;23;20021;-67
2023/01/19 00:41:09;;;;;;;19.90;13.45;;;;;;;6.43;56.92;100014.06;6181122;23;20017;-66
2023/01/19 00:43:35;;;;;;;16.60;13.07;;;;;;;6.44;56.92;100004.25;6181056;23;20444;-67
2023/01/19 00:46:02;;;;;;;18.02;12.70;;;;;;;6.42;56.99;100007.03;6180818;23;20017;-67
2023/01/19 00:48:29;;;;;;;16.35;12.52;;;;;;;6.42;57.00;100000.81;6181354;23;20028;-67
2023/01/19 00:50:56;;;;;;;16.40;12.63;;;;;;;6.40;57.13;100000.94;6181357;23;20383;-67
2023/01/19 00:53:22;;;;;;;17.42;13.07;;;;;;;6.40;57.05;100003.59;6181199;23;20009;-66
2023/01/19 00:55:49;;;;;;;17.70;12.38;;;;;;;6.40;57.06;100013.41;6181176;23;20066;-67
2023/01/19 00:58:15;;;;;;;16.88;13.20;;;;;;;6.41;57.05;100012.44;6181347;23;20017;-66
2023/01/19 01:00:43;;;;;;;18.95;13.25;;;;;;;6.41;57.19;100004.44;6180954;23;20014;-67
2023/01/19 01:03:10;;;;;;;16.23;12.48;;;;;;;6.41;57.18;100004.44;6181085;23;20013;-67
2023/01/19 01:05:40;;;;;;;17.83;13.35;;;;;;;6.43;57.11;99997.19;6181044;23;20383;-67
2023/01/19 01:08:06;;;;;;;18.30;12.23;;;;;;;6.44;57.32;99991.75;6181003;23;20044;-67
2023/01/19 01:10:33;;;;;;;18.70;13.60;;;;;;;6.45;57.18;99993.47;6181061;23;20336;-67
2023/01/19 01:13:00;;;;;;;21.08;13.60;;;;;;;6.46;57.23;99991.66;6180719;23;20336;-67
2023/01/19 01:15:51;;;;;;;21.17;13.35;;;;;;;6.49;57.21;99999.47;6181158;23;20040;-67
2023/01/19 01:18:17;;;;;;;17.40;12.77;;;;;;;6.48;57.24;99997.75;6181108;23;20063;-67
2023/01/19 01:20:44;;;;;;;19.02;13.35;;;;;;;6.49;57.20;100002.13;6181736;23;20017;-67
2023/01/19 01:23:13;;;;;;;19.48;14.23;;;;;;;6.48;57.24;99995.09;6180743;23;20074;-67
2023/01/19 01:25:40;;;;;;;21.30;13.73;;;;;;;6.45;57.23;99995.28;6180814;23;20017;-67
2023/01/19 01:28:07;;;;;;;18.13;13.23;;;;;;;6.45;57.31;99997.97;6180878;23;20382;-68
2023/01/19 01:30:38;;;;;;;22.05;13.75;;;;;;;6.47;57.28;99998.72;6180940;23;20394;-68
2023/01/19 01:33:06;;;;;;;20.85;13.85;;;;;;;6.45;57.38;100005.97;6180836;22;20017;-67
2023/01/19 01:35:33;;;;;;;20.98;14.20;;;;;;;6.42;57.35;100001.69;6180904;23;20027;-68
2023/01/19 01:38:00;;;;;;;21.60;14.18;;;;;;;6.43;57.34;100002.53;6181067;23;20024;-67
2023/01/19 01:40:27;;;;;;;20.15;13.48;;;;;;;6.44;57.58;100004.25;6180630;23;20095;-68
2023/01/19 01:42:54;;;;;;;16.60;13.20;;;;;;;6.45;57.50;99995.28;6180775;22;20104;-67
2023/01/19 01:45:35;;;;;;;19.58;13.82;;;;;;;6.45;57.56;99992.63;6154727;23;20017;-67
2023/01/19 01:48:08;;;;;;;21.33;13.85;;;;;;;6.46;57.48;99994.34;6180919;23;20020;-67
2023/01/19 01:51:22;;;;;;;17.60;13.60;;;;;;;6.46;57.47;99994.34;6180793;22;20448;-67
2023/01/19 01:53:29;;;;;;;17.45;13.40;;;;;;;6.46;57.61;99994.34;6180593;23;20016;-68
2023/01/19 01:55:56;;;;;;;17.48;13.43;;;;;;;6.46;57.39;99992.50;6182513;22;20024;-68
2023/01/19 01:58:23;;;;;;;19.73;13.32;;;;;;;6.44;57.45;99993.56;6181915;23;20100;-67
2023/01/19 02:03:35;;;;;;;20.13;13.95;;;;;;;6.42;57.41;99992.81;6182136;23;20021;-67
2023/01/19 02:06:06;;;;;;;18.38;13.13;;;;;;;6.42;57.55;100001.69;6182005;23;20471;-67
2023/01/19 02:14:41;;;;;;;15.82;12.40;;;;;;;6.36;57.43;99994.94;6182408;22;20347;-67
2023/01/19 02:17:08;;;;;;;17.52;12.38;;;;;;;6.31;57.62;99997.06;6181511;22;20070;-66
2023/01/19 02:19:41;;;;;;;19.45;13.38;;;;;;;6.30;57.55;100003.38;6182361;23;20079;-66
2023/01/19 02:22:30;;;;;;;20.58;13.02;;;;;;;6.29;57.69;100001.66;6182198;23;20067;-67
2023/01/19 02:24:57;;;;;;;17.05;12.55;;;;;;;6.31;57.61;100009.56;6181883;23;20444;-67
2023/01/19 02:27:24;;;;;;;22.42;13.55;;;;;;;6.30;57.64;100008.69;6182066;23;20020;-67
2023/01/19 02:29:50;;;;;;;17.45;12.68;;;;;;;6.28;57.47;100005.28;6181884;23;20066;-67
2023/01/19 02:32:17;;;;;;;21.27;13.70;;;;;;;6.25;57.75;100000.16;6182369;22;20033;-67
2023/01/19 02:34:44;;;;;;;18.35;13.15;;;;;;;6.24;57.69;100000.25;6182214;23;20388;-68
2023/01/19 02:37:14;;;;;;;17.40;11.85;;;;;;;6.20;57.72;100010.25;6181833;23;20028;-66
2023/01/19 02:39:53;;;;;;;17.50;11.75;;;;;;;6.15;57.72;100015.03;6181745;23;20099;-67
2023/01/19 02:42:31;;;;;;;16.13;11.75;;;;;;;6.09;57.59;100004.78;6181919;23;20017;-67
2023/01/19 02:44:58;;;;;;;15.90;11.43;;;;;;;6.02;57.58;100008.81;6155592;23;20448;-67
2023/01/19 02:47:25;;;;;;;17.88;12.00;;;;;;;5.97;57.62;100013.59;6182077;23;20020;-68
2023/01/19 02:49:59;;;;;;;17.33;12.15;;;;;;;5.95;57.73;100021.69;6181717;23;20067;-66
2023/01/19 02:52:27;;;;;;;15.65;11.30;;;;;;;5.92;57.74;100013.84;6182078;23;20021;-67
2023/01/19 02:55:21;;;;;;;16.65;11.50;;;;;;;5.90;57.82;100023.75;6181769;22;20534;-66
2023/01/19 02:58:01;;;;;;;16.30;12.02;;;;;;;5.89;57.92;100016.72;6181847;23;20013;-66
2023/01/19 03:00:55;;;;;;;14.95;11.52;;;;;;;5.87;58.01;100025.75;6181994;23;20017;-67
2023/01/19 03:03:31;;;;;;;16.85;11.23;;;;;;;5.87;57.94;100025.75;6181750;23;20021;-67
2023/01/19 03:06:04;;;;;;;14.50;11.15;;;;;;;5.84;57.90;100031.28;6182231;23;20017;-67
2023/01/19 03:08:51;;;;;;;16.52;11.82;;;;;;;5.85;57.98;100027.66;6181787;23;20521;-67
2023/01/19 03:11:18;;;;;;;15.77;11.85;;;;;;;5.83;58.06;100034.88;6182280;23;20459;-67
2023/01/19 03:14:07;;;;;;;16.45;11.85;;;;;;;5.80;58.08;100037.75;6181704;23;20017;-66
2023/01/19 03:16:41;;;;;;;18.85;12.40;;;;;;;5.77;58.02;100036.13;6181981;23;20070;-67
2023/01/19 03:19:22;;;;;;;16.92;12.13;;;;;;;5.76;58.15;100034.44;6181905;23;20074;-66
2023/01/19 03:21:57;;;;;;;17.55;13.10;;;;;;;5.74;58.14;100034.53;6181701;23;20044;-66
2023/01/19 03:24:28;;;;;;;22.35;13.10;;;;;;;5.73;58.16;100040.81;6182235;23;20097;-66
2023/01/19 03:27:00;;;;;;;16.23;12.50;;;;;;;5.73;58.20;100046.13;6181842;23;20325;-67
2023/01/19 03:29:30;;;;;;;15.25;12.18;;;;;;;5.71;58.47;100040.06;6181832;23;20515;-69
2023/01/19 03:32:01;;;;;;;16.10;12.85;;;;;;;5.69;58.28;100046.44;6181618;23;20013;-67
2023/01/19 03:34:28;;;;;;;14.32;12.35;;;;;;;5.68;58.34;100052.72;6182224;23;20325;-66
2023/01/19 03:37:01;;;;;;;17.63;13.18;;;;;;;5.67;58.38;100061.66;6181444;23;20084;-64
2023/01/19 03:39:28;;;;;;;14.85;11.73;;;;;;;5.66;58.60;100068.78;6181829;23;20013;-67
2023/01/19 03:42:04;;;;;;;15.98;11.50;;;;;;;5.66;58.52;100078.59;6181230;22;20099;-67
2023/01/19 03:44:35;;;;;;;13.27;10.77;;;;;;;5.62;58.42;100080.59;6181745;23;20098;-66
2023/01/19 03:47:05;;;;;;;12.70;10.43;;;;;;;5.60;58.48;100074.50;6181666;23;20035;-66
2023/01/19 03:49:33;;;;;;;14.93;11.10;;;;;;;5.57;58.55;100077.34;6182112;23;20100;-67
2023/01/19 03:52:00;;;;;;;16.05;11.30;;;;;;;5.57;58.54;100081.81;6181371;22;20032;-68
2023/01/19 03:54:27;;;;;;;14.05;10.57;;;;;;;5.54;58.58;100088.19;6181648;23;20436;-67
2023/01/19 03:56:53;;;;;;;13.13;10.27;;;;;;;5.54;58.48;100077.56;6181248;23;20036;-67
2023/01/19 03:59:20;;;;;;;14.35;10.20;;;;;;;5.53;58.65;100085.63;6181381;23;20440;-67
2023/01/19 04:01:47;;;;;;;11.77;10.32;;;;;;;5.53;58.63;100080.31;6181346;23;20013;-67
2023/01/19 04:04:14;;;;;;;13.35;9.95;;;;;;;5.52;58.72;100094.56;6181560;23;20079;-67
2023/01/19 04:06:41;;;;;;;12.05;9.32;;;;;;;5.51;58.93;100095.53;6181671;23;20062;-67
2023/01/19 04:09:08;;;;;;;11.48;9.80;;;;;;;5.51;58.84;100098.19;6181594;23;20021;-66
2023/01/19 04:11:35;;;;;;;11.27;9.63;;;;;;;5.50;58.80;100104.47;6181398;23;20043;-67
2023/01/19 04:14:01;;;;;;;11.77;9.27;;;;;;;5.50;58.86;100102.66;6181868;23;20020;-66
2023/01/19 04:16:28;;;;;;;11.57;9.57;;;;;;;5.49;58.81;100100.94;6181317;23;20010;-67
2023/01/19 04:18:55;;;;;;;10.93;9.80;;;;;;;5.48;58.99;100101.91;6181488;23;20382;-67
2023/01/19 04:21:21;;;;;;;13.55;10.60;;;;;;;5.48;58.81;100099.25;6181554;23;20037;-67
2023/01/19 04:23:48;;;;;;;12.50;10.15;;;;;;;5.50;58.98;100101.81;6181105;23;20017;-67
2023/01/19 04:26:15;;;;;;;12.27;10.00;;;;;;;5.48;58.97;100101.91;6181473;23;20102;-67
2023/01/19 04:28:42;;;;;;;11.02;9.90;;;;;;;5.47;58.99;100096.66;6181290;23;20024;-66
2023/01/19 04:31:08;;;;;;;11.90;10.48;;;;;;;5.46;59.03;100095.81;6181443;22;20025;-66
2023/01/19 04:33:35;;;;;;;10.93;9.82;;;;;;;5.47;59.06;100094.88;6181276;23;20078;-65
2023/01/19 04:36:02;;;;;;;10.63;9.15;;;;;;;5.46;59.08;100090.50;6181412;23;20062;-66
2023/01/19 04:38:29;;;;;;;10.90;9.35;;;;;;;5.47;59.10;100096.66;6155327;23;20104;-66
2023/01/19 04:40:56;;;;;;;10.60;9.02;;;;;;;5.45;59.11;100104.75;6182834;23;20024;-66
2023/01/19 04:43:23;;;;;;;8.85;7.95;;;;;;;5.44;59.15;100111.03;6188857;23;20024;-66
2023/01/19 04:45:50;;;;;;;8.00;7.20;;;;;;;5.45;59.09;100098.56;6181650;23;20024;-66
2023/01/19 04:48:17;;;;;;;8.35;7.30;;;;;;;5.44;59.22;100092.38;6181176;23;20078;-68
2023/01/19 04:50:44;;;;;;;7.68;6.88;;;;;;;5.45;59.30;100090.59;6181293;23;20091;-66
2023/01/19 04:53:12;;;;;;;7.18;6.47;;;;;;;5.44;59.25;100081.75;6180937;23;20024;-67
2023/01/19 04:55:39;;;;;;;7.57;6.10;;;;;;;5.43;59.25;100074.69;6181222;23;20390;-67
2023/01/19 04:58:05;;;;;;;5.85;5.25;;;;;;;5.42;59.23;100083.63;6181162;23;20013;-66
2023/01/19 05:00:32;;;;;;;5.57;5.00;;;;;;;5.41;59.15;100066.81;6181430;23;20010;-67
2023/01/19 05:03:00;;;;;;;5.10;4.57;;;;;;;5.42;59.36;100075.66;6180793;23;20055;-67
2023/01/19 05:05:27;;;;;;;5.00;4.50;;;;;;;5.40;59.30;100065.09;6181105;23;20021;-66
2023/01/19 05:07:53;;;;;;;4.10;3.70;;;;;;;5.40;59.28;100065.09;6181883;23;20013;-67
2023/01/19 05:10:20;;;;;;;4.20;3.80;;;;;;;5.40;59.40;100061.59;6181036;23;20143;-66
2023/01/19 05:12:47;;;;;;;4.10;3.70;;;;;;;5.40;59.33;100059.78;6180786;23;20066;-66
2023/01/19 05:15:13;;;;;;;4.35;3.67;;;;;;;5.44;59.48;100068.44;6181050;23;20086;-66
2023/01/19 05:17:40;;;;;;;4.15;3.75;;;;;;;5.44;59.48;100063.09;6180875;23;20018;-66
2023/01/19 05:20:11;;;;;;;4.00;3.60;;;;;;;5.45;59.40;100075.47;6181079;23;20017;-66
2023/01/19 05:22:41;;;;;;;4.25;3.65;;;;;;;5.44;59.41;100079.06;6155910;23;20013;-66
2023/01/19 05:25:08;;;;;;;3.78;3.30;;;;;;;5.43;59.43;100090.69;6180910;23;20384;-66
2023/01/19 05:27:35;;;;;;;3.72;3.40;;;;;;;5.42;59.33;100088.97;6180977;23;20017;-65
2023/01/19 05:30:04;;;;;;;3.90;3.15;;;;;;;5.43;59.56;100094.19;6181942;23;20024;-66
2023/01/19 05:32:30;;;;;;;3.40;3.10;;;;;;;5.43;59.46;100091.53;6182366;23;20013;-67
2023/01/19 05:34:57;;;;;;;3.35;3.03;;;;;;;5.43;59.45;100101.31;6182349;23;20021;-66
2023/01/19 05:37:23;;;;;;;3.17;2.80;;;;;;;5.41;59.58;100097.91;6182242;23;20040;-66
2023/01/19 05:39:50;;;;;;;3.70;3.40;;;;;;;5.41;59.53;100098.75;6182231;23;20104;-67
2023/01/19 05:42:17;;;;;;;3.55;3.25;;;;;;;5.43;59.48;100107.50;6182328;23;20021;-66
2023/01/19 05:44:43;;;;;;;4.13;3.10;;;;;;;5.45;59.59;100114.56;6182201;23;20017;-66
2023/01/19 05:47:10;;;;;;;4.47;2.90;;;;;;;5.48;59.57;100120.53;6182050;23;20659;-66
2023/01/19 05:49:37;;;;;;;3.67;3.13;;;;;;;5.50;59.57;100128.44;6182271;23;20145;-66
2023/01/19 05:52:03;;;;;;;3.40;2.90;;;;;;;5.54;59.59;100132.63;6181794;23;20339;-66
2023/01/19 05:54:30;;;;;;;4.18;3.20;;;;;;;5.55;59.71;100131.69;6182051;23;20414;-66
2023/01/19 05:56:57;;;;;;;4.53;3.33;;;;;;;5.57;59.64;100119.97;6181935;23;20099;-66
2023/01/19 05:59:23;;;;;;;3.88;3.10;;;;;;;5.59;59.74;100126.06;6182404;23;20021;-66
2023/01/19 06:01:51;;;;;;;4.90;3.63;;;;;;;5.61;59.53;100131.28;6181888;23;20017;-66
2023/01/19 06:04:18;;;;;;;5.25;3.42;;;;;;;5.61;59.69;100131.28;6182171;23;20053;-66
2023/01/19 06:06:49;;;;;;;7.28;4.18;;;;;;;5.61;59.57;100136.63;6182016;23;20051;-66
2023/01/19 06:09:16;;;;;;;9.70;5.13;;;;;;;5.62;59.69;100136.53;6182039;23;20013;-66
2023/01/19 06:11:44;;;;;;;7.10;4.47;;;;;;;5.61;59.61;100144.59;6181951;23;20398;-66
2023/01/19 06:14:10;;;;;;;7.05;4.65;;;;;;;5.60;59.42;100149.09;6182381;23;20017;-66
2023/01/19 06:16:37;;;;;;;7.93;5.03;;;;;;;5.59;59.68;100152.69;6182022;23;20448;-66
2023/01/19 06:19:04;;;;;;;6.95;5.10;;;;;;;5.58;59.68;100155.47;6155774;23;20029;-66
2023/01/19 06:21:31;;;;;;;7.00;5.20;;;;;;;5.57;59.63;100162.59;6182842;23;20021;-66
2023/01/19 06:23:57;;;;;;;8.38;5.63;;;;;;;5.57;59.75;100165.25;6182066;23;20014;-66
2023/01/19 06:26:25;;;;;;;6.82;5.43;;;;;;;5.59;59.82;100174.00;6182057;23;20036;-66
2023/01/19 06:28:51;;;;;;;8.63;5.40;;;;;;;5.61;59.87;100173.91;6182005;23;20104;-65
2023/01/19 06:31:18;;;;;;;8.05;5.85;;;;;;;5.65;59.81;100186.09;6182176;23;20093;-66
2023/01/19 06:33:45;;;;;;;10.68;7.15;;;;;;;5.65;59.73;100189.63;6181837;23;20013;-66
2023/01/19 06:36:12;;;;;;;8.85;6.20;;;;;;;5.67;59.78;100194.84;6181786;23;20070;-66
2023/01/19 06:38:38;;;;;;;8.27;6.45;;;;;;;5.69;59.80;100208.94;6181751;23;20390;-66
2023/01/19 06:41:05;;;;;;;7.13;5.90;;;;;;;5.67;59.84;100203.69;6181681;23;20066;-66
2023/01/19 06:43:31;;;;;;;10.50;6.75;;;;;;;5.69;59.80;100212.44;6155885;23;20014;-67
2023/01/19 06:45:59;;;;;;;9.55;7.07;;;;;;;5.69;59.82;100209.78;6182100;23;20013;-66
2023/01/19 06:48:26;;;;;;;9.27;7.40;;;;;;;5.71;59.85;100205.22;6181758;23;20021;-67
2023/01/19 06:50:52;;;;;;;13.52;8.30;;;;;;;5.74;59.90;100209.50;6182153;23;20013;-66
2023/01/19 06:53:21;;;;;;;12.98;8.73;;;;;;;5.77;59.81;100216.44;6181611;23;20436;-67
2023/01/19 06:55:47;;;;;;;12.23;8.15;;;;;;;5.77;59.98;100217.31;6181625;23;20021;-66
2023/01/19 06:58:14;;;;;;;12.65;9.32;;;;;;;5.79;59.79;100217.22;6181608;23;20021;-66
2023/01/19 07:00:41;;;;;;;14.55;9.75;;;;;;;5.80;59.92;100221.59;6181814;23;20100;-67
2023/01/19 07:03:18;;;;;;;14.55;10.50;;;;;;;5.78;59.81;100220.81;6181734;23;20017;-67
2023/01/19 07:05:45;;;;;;;12.10;10.02;;;;;;;5.74;59.69;100218.34;6181836;23;20037;-67
2023/01/19 07:08:12;;;;;;;14.45;11.23;;;;;;;5.74;59.79;100229.00;6181708;22;20104;-67
2023/01/19 07:10:38;;;;;;;13.45;11.20;;;;;;;5.75;59.88;100237.84;6181831;23;20017;-66
2023/01/19 07:13:25;;;;;;;21.80;12.32;;;;;;;5.77;59.84;100233.28;6181755;23;20048;-66
2023/01/19 07:15:51;;;;;;;18.15;12.43;;;;;;;5.78;59.96;100239.47;6181693;23;20107;-66
2023/01/19 07:18:18;;;;;;;14.80;13.18;;;;;;;5.78;59.88;100242.13;6181639;23;20074;-66
2023/01/19 07:20:45;;;;;;;16.45;12.82;;;;;;;5.78;59.87;100239.47;6182049;23;20348;-66
2023/01/19 07:23:12;;;;;;;17.45;14.00;;;;;;;5.76;59.91;100250.22;6181516;23;20428;-66
2023/01/19 07:25:38;;;;;;;17.27;13.52;;;;;;;5.73;59.81;100253.94;6181857;23;20036;-66
2023/01/19 07:28:05;;;;;;;18.58;15.18;;;;;;;5.73;59.85;100253.06;6155255;23;20017;-67
2023/01/19 07:30:32;;;;;;;17.65;14.85;;;;;;;5.73;59.96;100255.75;6181813;23;20024;-66
2023/01/19 07:32:59;;;;;;;17.08;15.00;;;;;;;5.73;60.02;100256.59;6181439;23;20017;-66
2023/01/19 07:35:26;;;;;;;22.05;16.85;;;;;;;5.75;59.99;100256.50;6181522;23;20088;-66
2023/01/19 07:37:53;;;;;;;19.35;16.63;;;;;;;5.77;60.26;100259.06;6181603;23;20018;-68
2023/01/19 07:40:19;;;;;;;21.58;16.70;;;;;;;5.79;59.93;100267.84;6181784;23;20025;-66
2023/01/19 07:42:49;;;;;;;23.80;18.67;;;;;;;5.81;59.95;100263.28;6155163;23;20017;-66
2023/01/19 07:45:19;;;;;;;22.45;18.15;;;;;;;5.80;59.98;100265.09;6181641;23;20017;-66
2023/01/19 07:47:50;;;;;;;26.38;18.92;;;;;;;5.79;59.74;100271.34;6181421;22;20086;-67
2023/01/19 07:50:20;;;;;;;23.25;18.75;;;;;;;5.79;59.88;100270.50;6181742;23;20021;-67
2023/01/19 07:52:49;;;;;;;23.52;19.95;;;;;;;5.80;59.97;100278.41;6181046;23;20016;-66
2023/01/19 07:55:16;;;;;;;22.83;19.73;;;;;;;5.80;59.98;100283.72;6181678;23;20097;-66
2023/01/19 07:57:43;;;;;;;31.13;21.52;;;;;;;5.80;59.97;100299.72;6181690;22;20095;-66
2023/01/19 08:00:10;;;;;;;24.67;20.13;;;;;;;5.79;60.05;100311.31;6181363;23;20013;-67
2023/01/19 08:02:40;;;;;;;30.40;22.65;;;;;;;5.79;60.05;100311.31;6179852;23;20017;-66
2023/01/19 08:05:07;;;;;;;29.73;21.15;;;;;;;5.77;60.12;100305.22;6180975;23;20040;-67
2023/01/19 08:07:34;;;;;;;28.10;21.05;;;;;;;5.79;60.17;100313.13;6181163;23;20455;-67
2023/01/19 08:10:03;;;;;;;28.77;21.73;;;;;;;5.80;60.30;100317.50;6155027;23;20066;-67
2023/01/19 08:12:29;;;;;;;30.45;21.58;;;;;;;5.83;60.14;100318.19;6181074;23;20025;-67
2023/01/19 08:14:56;;;;;;;26.17;21.52;;;;;;;5.86;60.20;100326.00;6179647;22;20428;-67
2023/01/19 08:17:22;;;;;;;29.42;21.98;;;;;;;5.89;60.13;100322.28;6181430;23;20490;-67
2023/01/19 08:19:49;;;;;;;27.98;21.13;;;;;;;5.89;60.18;100324.94;6182187;23;20021;-67
2023/01/19 08:22:15;;;;;;;24.95;20.95;;;;;;;5.90;60.32;100324.03;6181312;23;20062;-67
2023/01/19 08:24:42;;;;;;;27.45;21.23;;;;;;;5.90;60.16;100324.03;6181577;23;20013;-66
2023/01/19 08:27:09;;;;;;;29.33;21.02;;;;;;;5.91;60.22;100333.75;6181300;23;20440;-67
2023/01/19 08:29:36;;;;;;;30.05;21.80;;;;;;;5.90;60.22;100335.56;6181496;23;20017;-66
2023/01/19 08:32:03;;;;;;;26.67;22.20;;;;;;;5.92;60.32;100338.13;6181343;23;20052;-66
2023/01/19 08:34:30;;;;;;;28.48;20.77;;;;;;;5.91;60.28;100347.94;6181055;23;20013;-65
2023/01/19 08:36:58;;;;;;;27.73;21.83;;;;;;;5.92;60.22;100348.78;6180858;22;20017;-66
2023/01/19 08:39:26;;;;;;;32.25;22.40;;;;;;;5.92;60.34;100352.31;6181139;23;20041;-66
2023/01/19 08:41:53;;;;;;;27.27;21.27;;;;;;;5.93;60.13;100356.69;6180698;23;20013;-65
2023/01/19 08:44:19;;;;;;;30.90;21.35;;;;;;;5.93;60.33;100361.16;6181215;23;20013;-67
2023/01/19 08:46:46;;;;;;;31.05;22.60;;;;;;;5.96;60.34;100374.34;6181182;23;20022;-66
2023/01/19 08:49:14;;;;;;;33.40;20.95;;;;;;;5.98;60.47;100370.63;6181295;23;20014;-66
2023/01/19 08:51:40;;;;;;;34.47;21.63;;;;;;;6.01;60.31;100385.59;6180716;23;20017;-66
2023/01/19 08:54:07;;;;;;;35.10;21.33;;;;;;;6.02;60.43;100376.66;6180653;23;20023;-65
2023/01/19 08:56:34;;;;;;;25.38;20.75;;;;;;;6.04;60.34;100388.94;6181020;23;20086;-67
2023/01/19 08:59:01;;;;;;;31.63;22.15;;;;;;;6.07;60.40;100382.56;6180949;23;20017;-66
2023/01/19 09:01:36;;;;;;;31.90;22.58;;;;;;;6.10;60.42;100385.03;6181360;23;20019;-66
2023/01/19 09:04:03;;;;;;;33.22;22.08;;;;;;;6.13;60.42;100389.31;6181892;23;20013;-66
2023/01/19 09:06:31;;;;;;;31.60;21.17;;;;;;;6.16;60.38;100389.13;6182203;23;20013;-66
2023/01/19 09:08:58;;;;;;;34.05;23.25;;;;;;;6.22;60.47;100388.78;6182308;23;20013;-66
2023/01/19 09:11:26;;;;;;;31.80;22.77;;;;;;;6.29;60.90;100388.31;6182204;23;20037;-66
2023/01/19 09:13:53;;;;;;;28.40;21.48;;;;;;;6.35;60.64;100390.59;6181813;23;20092;-66
2023/01/19 09:16:19;;;;;;;29.00;18.98;;;;;;;6.42;60.75;100401.75;6182035;23;20399;-66
2023/01/19 09:18:46;;;;;;;28.38;19.05;;;;;;;6.46;60.59;100397.09;6182296;23;20134;-67
2023/01/19 09:21:13;;;;;;;26.15;18.83;;;;;;;6.49;60.75;100397.75;6182138;23;20075;-69
2023/01/19 09:23:41;;;;;;;29.85;20.63;;;;;;;6.52;60.58;100402.06;6181833;23;20013;-65
2023/01/19 09:26:08;;;;;;;29.45;20.80;;;;;;;6.53;60.57;100403.75;6181117;22;20049;-66
2023/01/19 09:28:36;;;;;;;27.88;20.50;;;;;;;6.52;60.40;100408.25;6182072;23;20392;-65
2023/01/19 09:31:05;;;;;;;34.17;21.80;;;;;;;6.53;60.41;100412.63;6181604;23;20028;-66
2023/01/19 09:33:33;;;;;;;29.85;20.88;;;;;;;6.53;60.35;100412.63;6181911;23;20070;-65
2023/01/19 09:36:00;;;;;;;34.63;22.02;;;;;;;6.52;60.33;100410.06;6181965;23;20096;-65
2023/01/19 09:38:30;;;;;;;31.83;22.38;;;;;;;6.49;60.21;100419.09;6155836;23;20019;-65
2023/01/19 09:40:58;;;;;;;38.17;23.70;;;;;;;6.47;60.03;100417.47;6181848;23;20031;-65
2023/01/19 09:43:32;;;;;;;35.88;24.35;;;;;;;6.44;60.21;100423.84;6182211;23;20021;-66
2023/01/19 09:46:10;;;;;;;37.75;25.38;;;;;;;6.40;60.11;100419.66;6181964;23;20044;-67
2023/01/19 09:48:44;;;;;;;39.40;23.95;;;;;;;6.36;60.07;100418.97;6181733;22;20028;-67
2023/01/19 09:51:15;;;;;;;41.77;25.23;;;;;;;6.35;60.05;100422.59;6182679;23;20313;-67
2023/01/19 09:53:56;;;;;;;37.33;24.30;;;;;;;6.35;60.19;100421.75;6181936;23;20041;-66
2023/01/19 09:56:23;;;;;;;44.28;25.75;;;;;;;6.38;60.18;100426.91;6182265;23;20017;-66
2023/01/19 09:58:50;;;;;;;40.08;26.05;;;;;;;6.42;60.30;100439.09;6182164;23;20024;-67
2023/01/19 10:01:49;;;;;;;47.30;24.63;;;;;;;6.46;60.07;100442.44;6182333;23;20120;-67
2023/01/19 10:04:27;;;;;;;38.83;24.52;;;;;;;6.49;60.27;100450.25;6182004;23;20013;-68
2023/01/19 10:07:18;;;;;;;45.17;25.15;;;;;;;6.53;60.32;100449.13;6131174;23;20463;-68
2023/01/19 10:09:54;;;;;;;65.13;29.08;;;;;;;6.57;60.35;100453.31;6157088;23;20013;-67
2023/01/19 10:12:37;;;;;;;65.53;27.85;;;;;;;6.59;60.29;100456.75;6182181;23;20382;-67
2023/01/19 10:15:19;;;;;;;49.17;26.10;;;;;;;6.61;60.39;100454.84;6181343;23;20017;-67
2023/01/19 10:18:12;;;;;;;46.47;26.35;;;;;;;6.61;60.20;100460.19;6181752;23;20017;-67
2023/01/19 10:20:59;;;;;;;55.17;28.33;;;;;;;6.58;60.26;100460.38;6181880;23;20023;-67
2023/01/19 10:23:38;;;;;;;66.63;31.25;;;;;;;6.58;60.29;100465.69;6181995;23;20023;-67
2023/01/19 10:26:08;;;;;;;69.60;32.20;;;;;;;6.60;60.37;100469.13;6155133;22;20088;-67
2023/01/19 10:28:37;;;;;;;53.92;28.38;;;;;;;6.63;60.37;100471.63;6181989;23;20444;-67
2023/01/19 10:31:05;;;;;;;52.25;26.88;;;;;;;6.63;60.32;100468.94;6182289;22;20099;-67
2023/01/19 10:33:33;;;;;;;52.22;28.95;;;;;;;6.65;60.42;100469.72;6181596;23;20070;-67
2023/01/19 10:36:15;;;;;;;48.95;27.42;;;;;;;6.67;60.46;100471.34;6181827;22;20013;-67
2023/01/19 10:38:42;;;;;;;48.42;28.23;;;;;;;6.70;60.37;100467.66;6181778;23;20017;-68
2023/01/19 10:41:24;;;;;;;45.97;28.90;;;;;;;6.72;60.40;100467.56;6155640;22;20013;-67
2023/01/19 10:44:03;;;;;;;48.72;27.80;;;;;;;6.77;60.51;100473.47;6181462;22;20097;-67
2023/01/19 10:46:42;;;;;;;43.67;26.02;;;;;;;6.85;60.55;100471.19;6182086;22;20009;-67
2023/01/19 10:49:41;;;;;;;44.05;27.30;;;;;;;6.95;60.80;100475.00;6181752;23;20333;-67
2023/01/19 10:52:18;;;;;;;54.45;26.35;;;;;;;7.08;60.93;100469.75;6153335;23;20021;-67
2023/01/19 10:54:47;;;;;;;40.75;27.38;;;;;;;7.20;60.74;100466.31;6181817;23;20013;-67
2023/01/19 10:57:26;;;;;;;46.30;26.58;;;;;;;7.31;60.82;100466.50;6181863;22;20020;-66
2023/01/19 10:59:53;;;;;;;38.85;25.70;;;;;;;7.40;60.74;100460.56;6182070;22;20017;-67
2023/01/19 11:02:22;;;;;;;40.35;25.83;;;;;;;7.48;60.89;100471.66;6181862;23;20028;-66
2023/01/19 11:04:51;;;;;;;39.30;24.33;;;;;;;7.56;60.70;100473.84;6181778;22;20013;-67
2023/01/19 11:07:31;;;;;;;35.50;24.27;;;;;;;7.61;60.64;100467.22;6181673;23;20471;-67
2023/01/19 11:10:22;;;;;;;46.40;25.77;;;;;;;7.65;60.50;100474.09;6182004;23;20017;-66
2023/01/19 11:13:07;;;;;;;37.05;23.80;;;;;;;7.74;60.57;100477.97;6182099;22;20037;-66
2023/01/19 11:15:34;;;;;;;40.67;25.20;;;;;;;7.81;60.52;100476.63;6181507;22;20080;-66
2023/01/19 11:18:04;;;;;;;37.15;24.05;;;;;;;7.91;60.57;100474.19;6181590;23;20021;-67
2023/01/19 11:20:49;;;;;;;36.97;22.77;;;;;;;7.97;60.61;100471.97;6181744;22;20415;-66
2023/01/19 11:23:27;;;;;;;31.50;21.33;;;;;;;8.08;60.60;100473.09;6181639;23;20037;-66
2023/01/19 11:25:57;;;;;;;29.17;19.92;;;;;;;8.16;60.36;100473.44;6181207;23;20474;-67
2023/01/19 11:28:38;;;;;;;30.45;20.25;;;;;;;8.24;60.38;100468.44;6181618;22;20020;-66
2023/01/19 11:31:13;;;;;;;28.55;19.00;;;;;;;8.36;60.47;100478.34;6190189;22;20024;-66
2023/01/19 11:33:41;;;;;;;29.52;19.77;;;;;;;8.47;60.36;100473.13;6181683;22;20017;-66
2023/01/19 11:36:20;;;;;;;25.50;18.05;;;;;;;8.54;60.37;100471.75;6181523;23;20028;-66
2023/01/19 11:38:49;;;;;;;29.95;19.17;;;;;;;8.62;60.24;100468.53;6181881;23;20020;-66
2023/01/19 11:41:33;;;;;;;28.35;17.83;;;;;;;8.66;60.22;100462.00;6155169;23;20021;-66
2023/01/19 11:44:17;;;;;;;24.70;16.05;;;;;;;8.71;60.04;100464.38;6181282;22;20020;-66